Wichita Mid Continent Airport
KICT : now visible

Airfield :











YOU CAN JOIN US ON...

 
LOGIN :

Register | Disclaimer

   EN    FR    IT 

 









Legend :    VFR   Marginal VFR   IFR   Intensive IFR   Very Intensive IFR
Visi :
Ceiling :
>= 8 km
>= 3000ft
5 to 8 km
1000 to 3000 ft
1500m to 5 km
500 to 1000 ft
800 to 1500m
200 to 500 ft
< 800m
< 200 ft
Symbols :   Thunderstorms  Fog  Heavy snow  Heavy precipitations  Wind > 20 kt






- Airport Elevation : 1333 ft
- IATA code : ICT


KICT - Wichita Mid Continent

CURRENT METAR :
  • 172044Z 17016G26KT 1SM R01L/6000VP6000FT -DZ BR OVC003 03/02 A2994 RMK AO2 PK WND 17027/2010 SFC VIS 1 1/2 RAB41E44DZB44 P0000 T00330022

EXPIRED METARs :
  • 172007Z 17018G25KT 10SM OVC004 03/02 A2996 RMK AO2 T00330022
  • 171953Z 18021G29KT 6SM BR OVC005 03/02 A2997 RMK AO2 PK WND 18029/1953 SLP158 T00330022
  • 171907Z 17016KT 4SM BR OVC004 03/01 A3002 RMK AO2 T00280011
  • 171853Z 17013KT 4SM BR OVC005 02/01 A3004 RMK AO2 DZE52 SLP183 P0000 T00220011
  • 171753Z 17012KT 3SM -DZ BR OVC005 02/01 A3010 RMK AO2 SLP202 P0000 60010 I6002 T00170006 10017 20000 58025

TAF KICT
Valid from the 17 at 18:00 until the 18 at 18:00 UTC


171720Z 1718/1818 17015KT 3SM -RA OVC003
FM172100 17020G28KT 5SM BR OVC003
FM180300 20017G26KT P6SM OVC007
FM180600 24016G24KT P6SM SCT015
FM181000 31021G29KT P6SM SKC WS020/33050KT



MET'MAP, your aeronautical weather chart ! - Copyright ORBIFLY December 2007 - Disclaimer

ORBIFLY MET'MAP TEAM :

Programming & Development : Alexandra Zaïnal
Concept & original design : Baudouin d'Aumeries
Assistance for programming : Marc-Olivier Méhu
Technical & hardware support : Manuel Goepfert

Contact : metmap@orbifly.com




SOURCES & CREDITS :

   NOAA       Earth
Advisory